Aktualne dane pomiarowe

Uwaga, wersja testowa! Automatyczne pobieranie danych za pomocą narzędzi lub skryptów to umożliwiających jest zabronione.

Dane meteo z obszaru Polski uzyskane na podstawie depesz SYNOP pobieranych co godzinę z NWS. Najedź myszką na symbol przedstawiony w tabeli, aby uzyskać informacje co do jego znaczenia. Prosimy pamiętać, że to testowa wersja strony, która jeszcze nie jest ukończona. Stworzono również jest krótki FAQ dotyczący korzystania z tej podstrony Anomalie temperatury w chwili obecnej odniesione są do okresu referencyjnego 1951-2016. Okres ten będzie później zmieniony na 1981-2010. Kliknij ikonę aby pobrać plik CSV. Kliknij ikonę aby wygenerować mapę synoptyczną dla danego terminu.

Wybierz Datę:    

        

Kalisz (12435)

Dane terminowe dla wybranej stacji. Kliknij datę, aby otrzymać dane z tego terminu dla wszystkich stacji.

TemperaturaZachmurzenieWiatrCiśnienieOpadyPogoda
 Data t td wb tx tn tg rh  Nt Nl Cl Cm Ch ws wd g1 g2 wx mslp ppp ch 24h 12h t ww ww w1 w2  
2019-05-25 23:00:00 10.5 9.1 9.5--- 9116.0wx-wx2wx--21015.2 998.3 0.9---------
2019-05-25 22:00:00 11.1 9.2 9.8--- 8820.0wx-wx0---01014.9 998.0 1.1---------
2019-05-25 21:00:00 12.3 9.7 10.6--- 8430.0wx-wx2wx--21014.6 997.8 1.4---------
2019-05-25 20:00:00 13.6 10.0 11.3--- 7945.0wx-wx3wx--31014.1 997.4 1.3---------
2019-05-25 19:00:00 14.9 10.1 11.9--- 7350.0wx-wxwx3wx---1013.6 996.9 0.8---------
2019-05-25 18:00:00 17.3 10.4 13.0 20.7 14.3- 6445.0wxwxwxwxwx5wx-1051012.9 996.4 0.1- 0.012------
2019-05-25 17:00:00 19.3 9.5 13.5--- 5340.0wxwxwxwxwx3wx-831012.5 996.1 -0.3---------
2019-05-25 16:00:00 19.5 9.7 13.7--- 5335.0wxwxwxwx4wx--41012.5 996.1 -0.5---------
2019-05-25 15:00:00 20.4 10.8 14.6--- 5435.0wxwxwxwx5wx-1051012.6 996.3 -0.2---------
2019-05-25 14:00:00 20.6 11.0 14.8--- 5440.0wxwxwxwx5wx---1012.7 996.4 -0.2---------
2019-05-25 13:00:00 19.7 10.7 14.2--- 5630.0wxwxwxwx6wx-1061013.0 996.6 0.0---------
2019-05-25 12:00:00 20.0 11.2 14.6--- 5730.0wxwxwxwx5wx-1051012.9 996.5 0.2- 0.06------
2019-05-25 11:00:00 19.9 10.9 14.4--- 5630.0wxwxwxwx5wx--51013.0 996.6 0.7---------
2019-05-25 10:00:00 19.5 11.0 14.3--- 5823.0wxwxwxwx4wx--41013.0 996.6 1.1---------
2019-05-25 09:00:00 19.0 13.2 15.2--- 6923.0wx-wxwx4wx---1012.7 996.3 1.0---------
2019-05-25 08:00:00 16.9 12.0 13.7--- 7330.0wxwxwxwx3wx--31012.4 995.9 0.8---------
2019-05-25 07:00:00 16.4 11.3 13.1--- 7230.0wx-wxwx3wx--31012.0 995.5 0.5---------
2019-05-25 06:00:00 14.3 10.1 11.6 15.7 9.7 6 7630.0wxwxwxwx3wx--31012.0 995.3 0.3- 0.012----- 11.7
2019-05-25 05:00:00 12.0 8.7 9.9--- 8030.0wxwxwxwx3wx---1011.9 995.1 0.0---------
2019-05-25 04:00:00 11.1 8.3 9.3--- 8315.0wxwxwx2wx--21011.8 995.0 -0.2---------
2019-05-25 03:00:00 10.0 7.8 8.5--- 8616.0wxwxwx2wx--21011.9 995.0 -0.5---------
2019-05-25 02:00:00 10.2 7.8 8.6--- 8516.0wx-wx2wx--21012.0 995.1 -0.6---------
2019-05-25 01:00:00 10.2 8.0 8.7--- 8612.0wx-wx2wx--21012.1 995.2 -0.7---------
2019-05-25 00:00:00 11.5 8.5 9.6--- 8213.0wx-wx2wx--21012.3 995.5 -0.6- 0.06------
2019-05-24 23:00:00 12.0 8.8 9.9--- 8112.0wx-wx1wx---1012.5 995.7 -0.4---------
2019-05-24 22:00:00 12.4 8.7 10.0--- 7815.0wx-wx2wx--21012.7 995.9 -0.2---------
2019-05-24 21:00:00 13.6 7.8 10.1--- 6845.0wx-wx1wx--11012.8 996.1 0.1---------
2019-05-24 20:00:00 13.6 7.8 10.1--- 6845.0wx-wx1wx--11012.8 996.1 0.2---------
2019-05-24 19:00:00 14.7 9.1 11.2--- 6950.0wx-wx2wx--21012.8 996.1 0.1---------
2019-05-24 18:00:00 15.7 10.0 12.1 19.9 11.8- 6945.0wx-wx3wx-831012.6 996.0 -0.4- 0.012------
2019-05-24 17:00:00 18.0 8.5 12.5--- 5445.0wxwxwxwx3wx--31012.4 995.9 -0.8---------
2019-05-24 16:00:00 19.3 8.0 12.8--- 4840.0wxwxwxwx4wx--41012.4 996.0 -1.2---------
2019-05-24 15:00:00 19.8 7.5 12.8--- 4535.0wxwxwxwx3wx-831012.8 996.4 -1.0---------
2019-05-24 14:00:00 19.7 7.1 12.6--- 4430.0wxwxwxwx3wx--31013.1 996.7 -1.1---------
2019-05-24 13:00:00 19.1 8.1 12.8--- 4930.0wxwxwxwx3wx---1013.6 997.2 -1.1---------
2019-05-24 12:00:00 18.5 8.5 12.7--- 5230.0wxwxwxwx3wx--31013.9 997.4 -1.1- 0.06------
2019-05-24 11:00:00 17.9 8.7 12.5--- 5530.0wxwxwxwxwx2wx--21014.3 997.8 -0.8---------
2019-05-24 10:00:00 17.1 9.5 12.5--- 6130.0wxwxwxwxwx2wx--21014.8 998.3 -0.5---------
2019-05-24 09:00:00 16.0 8.7 11.6--- 6235.0wx-wxwx3wx--31015.1 998.5 -0.3---------
2019-05-24 08:00:00 15.0 8.2 10.9--- 6427.0wxwxwxwx2wx--21015.3 998.6 -0.1---------
2019-05-24 07:00:00 13.6 7.1 9.8--- 6540.0wxwxwxwx2wx--21015.6 998.8 0.2---------
2019-05-24 06:00:00 11.8 8.1 9.5 14.3 8.0 6 7830.0wxwxwxwx2wx--21015.7 998.8 0.2- 0.012------
2019-05-24 05:00:00 9.3 7.4 8.0--- 8815.0wxwxwxwx2wx--21015.7 998.7 -0.1---------
2019-05-24 04:00:00 8.4 7.0 7.4--- 9120.0wxwxwxwxwx2wx---1015.7 998.6 -0.4---------
2019-05-24 03:00:00 8.1 6.7 7.1--- 9120.0wxwxwxwxwx2wx---1015.7 998.6 -0.5---------
2019-05-24 02:00:00 8.7 7.0 7.5--- 8925.0wxwxwx2wx--21015.9 998.8 -0.5---------
2019-05-24 01:00:00 8.1 6.4 7.0--- 8930.0wxwxwx1wx--11016.1 999.0 -0.3---------
2019-05-24 00:00:00 9.5 7.1 7.9--- 8530.0wxwxwx1wx--11016.1 999.1 -0.3- 0.06------
7.4 ms

 

Print Friendly, PDF & Email